sensor_id;sensor_type;location;lat;lon;timestamp;pressure;altitude;pressure_sealevel;temperature;humidity
79077;BME280;68477;42.698;23.342;2023-11-21T00:00:28;95246.31;;;3.51;90.29
79077;BME280;68477;42.698;23.342;2023-11-21T00:02:54;95248.06;;;3.71;88.66
79077;BME280;68477;42.698;23.342;2023-11-21T00:05:19;95245.94;;;3.56;89.97
79077;BME280;68477;42.698;23.342;2023-11-21T00:07:44;95238.41;;;3.53;90.20
79077;BME280;68477;42.698;23.342;2023-11-21T00:10:11;95247.94;;;3.73;89.24
79077;BME280;68477;42.698;23.342;2023-11-21T00:12:39;95251.38;;;3.43;89.87
79077;BME280;68477;42.698;23.342;2023-11-21T00:15:07;95250.22;;;3.15;93.04
79077;BME280;68477;42.698;23.342;2023-11-21T00:17:39;95245.69;;;3.07;93.64
79077;BME280;68477;42.698;23.342;2023-11-21T00:20:06;95252.69;;;3.37;92.13
79077;BME280;68477;42.698;23.342;2023-11-21T00:22:35;95250.53;;;3.42;90.98
79077;BME280;68477;42.698;23.342;2023-11-21T00:25:01;95248.09;;;3.50;90.59
79077;BME280;68477;42.698;23.342;2023-11-21T00:27:29;95248.44;;;3.36;91.58
79077;BME280;68477;42.698;23.342;2023-11-21T00:29:54;95243.97;;;3.17;93.46
79077;BME280;68477;42.698;23.342;2023-11-21T00:32:20;95234.56;;;3.05;92.98
79077;BME280;68477;42.698;23.342;2023-11-21T00:34:45;95233.38;;;3.09;92.32
79077;BME280;68477;42.698;23.342;2023-11-21T00:37:11;95239.28;;;3.32;91.99
79077;BME280;68477;42.698;23.342;2023-11-21T00:39:37;95240.78;;;3.35;90.85
79077;BME280;68477;42.698;23.342;2023-11-21T00:42:02;95243.72;;;3.00;92.44
79077;BME280;68477;42.698;23.342;2023-11-21T00:44:30;95238.66;;;3.19;92.53
79077;BME280;68477;42.698;23.342;2023-11-21T00:46:56;95237.31;;;3.04;91.16
79077;BME280;68477;42.698;23.342;2023-11-21T00:49:21;95238.25;;;3.03;92.26
79077;BME280;68477;42.698;23.342;2023-11-21T00:51:47;95242.25;;;3.07;92.62
79077;BME280;68477;42.698;23.342;2023-11-21T00:54:12;95239.59;;;3.18;89.94
79077;BME280;68477;42.698;23.342;2023-11-21T00:56:38;95229.38;;;3.05;91.00
79077;BME280;68477;42.698;23.342;2023-11-21T00:59:03;95230.59;;;3.01;91.85
79077;BME280;68477;42.698;23.342;2023-11-21T01:01:30;95227.69;;;2.95;90.84
79077;BME280;68477;42.698;23.342;2023-11-21T01:03:55;95227.88;;;3.03;90.80
79077;BME280;68477;42.698;23.342;2023-11-21T01:06:21;95222.66;;;3.03;89.48
79077;BME280;68477;42.698;23.342;2023-11-21T01:08:46;95223.19;;;3.17;90.01
79077;BME280;68477;42.698;23.342;2023-11-21T01:11:12;95223.13;;;2.87;90.52
79077;BME280;68477;42.698;23.342;2023-11-21T01:13:38;95226.72;;;2.75;91.98
79077;BME280;68477;42.698;23.342;2023-11-21T01:16:05;95223.75;;;2.47;93.69
79077;BME280;68477;42.698;23.342;2023-11-21T01:18:32;95219.56;;;2.35;95.24
79077;BME280;68477;42.698;23.342;2023-11-21T01:20:57;95218.94;;;2.43;93.72
79077;BME280;68477;42.698;23.342;2023-11-21T01:23:23;95226.41;;;2.25;94.55
79077;BME280;68477;42.698;23.342;2023-11-21T01:25:49;95225.66;;;2.45;93.79
79077;BME280;68477;42.698;23.342;2023-11-21T01:28:14;95233.31;;;2.47;94.50
79077;BME280;68477;42.698;23.342;2023-11-21T01:30:40;95222.97;;;2.36;94.71
79077;BME280;68477;42.698;23.342;2023-11-21T01:33:07;95221.03;;;2.49;94.17
79077;BME280;68477;42.698;23.342;2023-11-21T01:35:33;95220.06;;;2.61;93.25
79077;BME280;68477;42.698;23.342;2023-11-21T01:37:59;95218.34;;;2.71;91.10
79077;BME280;68477;42.698;23.342;2023-11-21T01:40:24;95226.94;;;2.72;92.49
79077;BME280;68477;42.698;23.342;2023-11-21T01:42:50;95235.41;;;2.85;91.01
79077;BME280;68477;42.698;23.342;2023-11-21T01:45:15;95228.94;;;3.00;90.02
79077;BME280;68477;42.698;23.342;2023-11-21T01:47:42;95228.25;;;2.77;91.05
79077;BME280;68477;42.698;23.342;2023-11-21T01:50:16;95227.13;;;2.38;92.78
79077;BME280;68477;42.698;23.342;2023-11-21T01:52:44;95208.19;;;2.15;94.71
79077;BME280;68477;42.698;23.342;2023-11-21T01:55:10;95216.31;;;2.54;93.37
79077;BME280;68477;42.698;23.342;2023-11-21T01:57:37;95215.56;;;2.63;91.37
79077;BME280;68477;42.698;23.342;2023-11-21T02:00:03;95225.03;;;2.85;90.17
79077;BME280;68477;42.698;23.342;2023-11-21T02:02:44;95222.66;;;2.82;90.43
79077;BME280;68477;42.698;23.342;2023-11-21T02:05:10;95216.06;;;2.57;91.12
79077;BME280;68477;42.698;23.342;2023-11-21T02:07:41;95211.69;;;2.57;91.83
79077;BME280;68477;42.698;23.342;2023-11-21T02:10:08;95217.81;;;2.56;91.17
79077;BME280;68477;42.698;23.342;2023-11-21T02:12:34;95215.69;;;2.61;91.62
79077;BME280;68477;42.698;23.342;2023-11-21T02:15:03;95214.75;;;2.62;89.99
79077;BME280;68477;42.698;23.342;2023-11-21T02:17:41;95221.59;;;2.63;91.32
79077;BME280;68477;42.698;23.342;2023-11-21T02:20:10;95220.75;;;2.63;90.39
79077;BME280;68477;42.698;23.342;2023-11-21T02:22:41;95218.53;;;2.58;90.93
79077;BME280;68477;42.698;23.342;2023-11-21T02:25:08;95213.84;;;2.52;92.01
79077;BME280;68477;42.698;23.342;2023-11-21T02:27:33;95205.53;;;2.26;93.40
79077;BME280;68477;42.698;23.342;2023-11-21T02:29:59;95215.28;;;2.45;92.27
79077;BME280;68477;42.698;23.342;2023-11-21T02:32:26;95207.91;;;2.61;92.35
79077;BME280;68477;42.698;23.342;2023-11-21T02:34:52;95210.00;;;2.36;92.84
79077;BME280;68477;42.698;23.342;2023-11-21T02:37:21;95204.59;;;2.39;94.21
79077;BME280;68477;42.698;23.342;2023-11-21T02:39:46;95205.41;;;2.60;92.32
79077;BME280;68477;42.698;23.342;2023-11-21T02:42:12;95205.69;;;2.78;91.00
79077;BME280;68477;42.698;23.342;2023-11-21T02:44:37;95198.47;;;2.60;90.89
79077;BME280;68477;42.698;23.342;2023-11-21T02:47:03;95213.06;;;2.41;91.90
79077;BME280;68477;42.698;23.342;2023-11-21T02:49:29;95208.06;;;2.49;92.03
79077;BME280;68477;42.698;23.342;2023-11-21T02:51:54;95205.59;;;2.15;94.50
79077;BME280;68477;42.698;23.342;2023-11-21T02:54:20;95214.84;;;1.86;96.25
79077;BME280;68477;42.698;23.342;2023-11-21T02:56:47;95214.16;;;2.27;93.55
79077;BME280;68477;42.698;23.342;2023-11-21T02:59:15;95206.28;;;2.17;93.75
79077;BME280;68477;42.698;23.342;2023-11-21T03:01:41;95207.91;;;2.29;93.85
79077;BME280;68477;42.698;23.342;2023-11-21T03:04:06;95209.09;;;2.25;93.77
79077;BME280;68477;42.698;23.342;2023-11-21T03:06:32;95211.84;;;2.13;95.04
79077;BME280;68477;42.698;23.342;2023-11-21T03:08:57;95207.56;;;2.23;93.71
79077;BME280;68477;42.698;23.342;2023-11-21T03:11:23;95205.47;;;2.17;94.13
79077;BME280;68477;42.698;23.342;2023-11-21T03:13:48;95201.97;;;2.07;94.26
79077;BME280;68477;42.698;23.342;2023-11-21T03:16:15;95212.78;;;2.12;94.71
79077;BME280;68477;42.698;23.342;2023-11-21T03:18:40;95207.22;;;1.73;96.36
79077;BME280;68477;42.698;23.342;2023-11-21T03:21:07;95219.34;;;1.84;96.72
79077;BME280;68477;42.698;23.342;2023-11-21T03:23:36;95213.56;;;2.23;94.48
79077;BME280;68477;42.698;23.342;2023-11-21T03:26:02;95219.81;;;2.32;93.88
79077;BME280;68477;42.698;23.342;2023-11-21T03:28:27;95216.47;;;2.41;92.69
79077;BME280;68477;42.698;23.342;2023-11-21T03:30:53;95220.34;;;2.47;92.93
79077;BME280;68477;42.698;23.342;2023-11-21T03:33:19;95228.91;;;2.58;91.37
79077;BME280;68477;42.698;23.342;2023-11-21T03:35:45;95218.91;;;2.54;92.99
79077;BME280;68477;42.698;23.342;2023-11-21T03:38:11;95214.22;;;2.04;94.63
79077;BME280;68477;42.698;23.342;2023-11-21T03:40:37;95215.78;;;2.39;93.22
79077;BME280;68477;42.698;23.342;2023-11-21T03:43:05;95212.25;;;2.40;93.20
79077;BME280;68477;42.698;23.342;2023-11-21T03:45:31;95203.22;;;2.12;95.83
79077;BME280;68477;42.698;23.342;2023-11-21T03:47:58;95206.44;;;2.16;94.19
79077;BME280;68477;42.698;23.342;2023-11-21T03:50:26;95200.56;;;1.91;97.17
79077;BME280;68477;42.698;23.342;2023-11-21T03:52:51;95196.56;;;1.87;97.19
79077;BME280;68477;42.698;23.342;2023-11-21T03:55:16;95191.00;;;2.35;94.46
79077;BME280;68477;42.698;23.342;2023-11-21T03:57:42;95198.00;;;2.55;93.74
79077;BME280;68477;42.698;23.342;2023-11-21T04:00:08;95188.53;;;2.33;94.04
79077;BME280;68477;42.698;23.342;2023-11-21T04:02:34;95202.13;;;2.58;93.46
79077;BME280;68477;42.698;23.342;2023-11-21T04:05:00;95200.44;;;2.68;92.15
79077;BME280;68477;42.698;23.342;2023-11-21T04:07:25;95191.59;;;2.39;93.07
79077;BME280;68477;42.698;23.342;2023-11-21T04:09:51;95186.06;;;2.32;93.79
79077;BME280;68477;42.698;23.342;2023-11-21T04:12:16;95183.00;;;2.38;93.64
79077;BME280;68477;42.698;23.342;2023-11-21T04:14:42;95187.28;;;2.49;92.85
79077;BME280;68477;42.698;23.342;2023-11-21T04:17:07;95186.53;;;2.58;94.14
79077;BME280;68477;42.698;23.342;2023-11-21T04:19:33;95182.69;;;2.20;93.83
79077;BME280;68477;42.698;23.342;2023-11-21T04:21:58;95188.88;;;2.40;93.67
79077;BME280;68477;42.698;23.342;2023-11-21T04:24:24;95188.41;;;2.35;94.01
79077;BME280;68477;42.698;23.342;2023-11-21T04:26:49;95188.69;;;2.53;93.20
79077;BME280;68477;42.698;23.342;2023-11-21T04:29:14;95186.72;;;2.45;92.01
79077;BME280;68477;42.698;23.342;2023-11-21T04:31:40;95189.38;;;2.34;93.84
79077;BME280;68477;42.698;23.342;2023-11-21T04:34:06;95187.66;;;2.44;92.76
79077;BME280;68477;42.698;23.342;2023-11-21T04:36:32;95178.91;;;2.24;93.96
79077;BME280;68477;42.698;23.342;2023-11-21T04:38:57;95189.50;;;1.78;96.62
79077;BME280;68477;42.698;23.342;2023-11-21T04:41:23;95186.84;;;2.12;95.01
79077;BME280;68477;42.698;23.342;2023-11-21T04:43:48;95189.53;;;2.21;94.34
79077;BME280;68477;42.698;23.342;2023-11-21T04:46:14;95191.97;;;2.34;92.70
79077;BME280;68477;42.698;23.342;2023-11-21T04:48:40;95192.50;;;2.17;92.65
79077;BME280;68477;42.698;23.342;2023-11-21T04:51:07;95195.50;;;1.90;95.21
79077;BME280;68477;42.698;23.342;2023-11-21T04:53:32;95195.22;;;2.15;93.65
79077;BME280;68477;42.698;23.342;2023-11-21T04:55:58;95201.78;;;2.30;93.17
79077;BME280;68477;42.698;23.342;2023-11-21T04:58:24;95197.97;;;2.34;92.98
79077;BME280;68477;42.698;23.342;2023-11-21T05:00:49;95190.41;;;2.43;92.25
79077;BME280;68477;42.698;23.342;2023-11-21T05:03:15;95194.28;;;2.16;92.88
79077;BME280;68477;42.698;23.342;2023-11-21T05:05:40;95197.28;;;1.89;95.50
79077;BME280;68477;42.698;23.342;2023-11-21T05:08:07;95196.09;;;1.93;95.54
79077;BME280;68477;42.698;23.342;2023-11-21T05:10:33;95196.63;;;2.19;94.12
79077;BME280;68477;42.698;23.342;2023-11-21T05:12:59;95190.81;;;1.84;94.32
79077;BME280;68477;42.698;23.342;2023-11-21T05:15:24;95184.03;;;1.49;97.60
79077;BME280;68477;42.698;23.342;2023-11-21T05:17:50;95182.41;;;1.91;95.42
79077;BME280;68477;42.698;23.342;2023-11-21T05:20:17;95184.66;;;1.96;94.57
79077;BME280;68477;42.698;23.342;2023-11-21T05:22:46;95185.28;;;2.20;94.12
79077;BME280;68477;42.698;23.342;2023-11-21T05:25:13;95176.31;;;2.24;93.21
79077;BME280;68477;42.698;23.342;2023-11-21T05:27:39;95187.28;;;2.28;93.35
79077;BME280;68477;42.698;23.342;2023-11-21T05:30:07;95200.91;;;2.41;93.04
79077;BME280;68477;42.698;23.342;2023-11-21T05:32:38;95207.28;;;2.37;93.32
79077;BME280;68477;42.698;23.342;2023-11-21T05:35:04;95199.44;;;2.27;93.96
79077;BME280;68477;42.698;23.342;2023-11-21T05:37:35;95200.53;;;2.46;93.47
79077;BME280;68477;42.698;23.342;2023-11-21T05:40:01;95194.34;;;1.94;95.28
79077;BME280;68477;42.698;23.342;2023-11-21T05:42:31;95201.84;;;2.08;96.06
79077;BME280;68477;42.698;23.342;2023-11-21T05:44:57;95209.41;;;1.89;96.23
79077;BME280;68477;42.698;23.342;2023-11-21T05:47:28;95211.56;;;1.84;96.86
79077;BME280;68477;42.698;23.342;2023-11-21T05:49:54;95207.53;;;1.80;97.47
79077;BME280;68477;42.698;23.342;2023-11-21T05:52:19;95207.38;;;1.92;97.41
79077;BME280;68477;42.698;23.342;2023-11-21T05:54:45;95198.56;;;1.95;96.96
79077;BME280;68477;42.698;23.342;2023-11-21T05:57:11;95191.84;;;1.92;97.10
79077;BME280;68477;42.698;23.342;2023-11-21T05:59:36;95196.53;;;2.42;94.14
79077;BME280;68477;42.698;23.342;2023-11-21T06:02:02;95201.63;;;2.64;92.70
79077;BME280;68477;42.698;23.342;2023-11-21T06:04:28;95207.19;;;2.59;92.83
79077;BME280;68477;42.698;23.342;2023-11-21T06:06:53;95201.44;;;2.77;92.11
79077;BME280;68477;42.698;23.342;2023-11-21T06:09:19;95199.69;;;2.45;92.95
79077;BME280;68477;42.698;23.342;2023-11-21T06:11:44;95207.38;;;2.68;92.99
79077;BME280;68477;42.698;23.342;2023-11-21T06:14:10;95210.69;;;2.70;92.93
79077;BME280;68477;42.698;23.342;2023-11-21T06:16:36;95219.00;;;2.84;91.27
79077;BME280;68477;42.698;23.342;2023-11-21T06:19:01;95211.78;;;2.88;91.25
79077;BME280;68477;42.698;23.342;2023-11-21T06:21:27;95213.09;;;2.29;93.48
79077;BME280;68477;42.698;23.342;2023-11-21T06:23:52;95212.16;;;2.30;94.59
79077;BME280;68477;42.698;23.342;2023-11-21T06:26:18;95218.66;;;2.57;92.65
79077;BME280;68477;42.698;23.342;2023-11-21T06:28:45;95221.53;;;2.75;91.75
79077;BME280;68477;42.698;23.342;2023-11-21T06:31:11;95216.28;;;2.86;89.90
79077;BME280;68477;42.698;23.342;2023-11-21T06:33:36;95230.06;;;2.66;92.16
79077;BME280;68477;42.698;23.342;2023-11-21T06:36:02;95233.19;;;2.80;89.80
79077;BME280;68477;42.698;23.342;2023-11-21T06:38:28;95231.44;;;2.70;90.66
79077;BME280;68477;42.698;23.342;2023-11-21T06:40:55;95234.38;;;2.76;90.41
79077;BME280;68477;42.698;23.342;2023-11-21T06:43:21;95230.84;;;2.98;88.42
79077;BME280;68477;42.698;23.342;2023-11-21T06:45:47;95239.13;;;2.92;90.66
79077;BME280;68477;42.698;23.342;2023-11-21T06:48:13;95234.28;;;3.19;88.46
79077;BME280;68477;42.698;23.342;2023-11-21T06:50:39;95232.88;;;3.15;88.55
79077;BME280;68477;42.698;23.342;2023-11-21T06:53:04;95233.31;;;3.41;88.86
79077;BME280;68477;42.698;23.342;2023-11-21T06:55:32;95229.81;;;3.52;88.08
79077;BME280;68477;42.698;23.342;2023-11-21T06:57:58;95232.72;;;3.38;87.23
79077;BME280;68477;42.698;23.342;2023-11-21T07:00:25;95239.09;;;3.55;88.05
79077;BME280;68477;42.698;23.342;2023-11-21T07:02:53;95237.69;;;3.41;87.05
79077;BME280;68477;42.698;23.342;2023-11-21T07:05:18;95238.63;;;3.70;88.46
79077;BME280;68477;42.698;23.342;2023-11-21T07:07:46;95245.81;;;3.88;86.06
79077;BME280;68477;42.698;23.342;2023-11-21T07:10:11;95237.78;;;4.00;86.50
79077;BME280;68477;42.698;23.342;2023-11-21T07:12:37;95234.69;;;3.76;86.31
79077;BME280;68477;42.698;23.342;2023-11-21T07:15:03;95231.94;;;3.77;86.30
79077;BME280;68477;42.698;23.342;2023-11-21T07:17:32;95224.22;;;4.06;85.96
79077;BME280;68477;42.698;23.342;2023-11-21T07:19:58;95228.59;;;4.06;86.30
79077;BME280;68477;42.698;23.342;2023-11-21T07:22:23;95227.84;;;3.85;86.41
79077;BME280;68477;42.698;23.342;2023-11-21T07:24:49;95223.69;;;3.72;87.41
79077;BME280;68477;42.698;23.342;2023-11-21T07:27:17;95223.84;;;4.11;85.94
79077;BME280;68477;42.698;23.342;2023-11-21T07:29:43;95228.69;;;4.45;84.39
79077;BME280;68477;42.698;23.342;2023-11-21T07:32:09;95237.16;;;4.37;84.89
79077;BME280;68477;42.698;23.342;2023-11-21T07:34:35;95233.63;;;4.57;83.70
79077;BME280;68477;42.698;23.342;2023-11-21T07:37:01;95235.41;;;4.57;83.87
79077;BME280;68477;42.698;23.342;2023-11-21T07:39:27;95234.16;;;4.51;84.20
79077;BME280;68477;42.698;23.342;2023-11-21T07:41:53;95224.84;;;5.07;82.91
79077;BME280;68477;42.698;23.342;2023-11-21T07:44:19;95216.56;;;5.31;80.28
79077;BME280;68477;42.698;23.342;2023-11-21T07:46:45;95218.81;;;5.53;80.84
79077;BME280;68477;42.698;23.342;2023-11-21T07:49:13;95222.22;;;5.26;80.97
79077;BME280;68477;42.698;23.342;2023-11-21T07:51:43;95220.00;;;5.31;81.19
79077;BME280;68477;42.698;23.342;2023-11-21T07:54:09;95218.19;;;5.41;80.37
79077;BME280;68477;42.698;23.342;2023-11-21T07:56:35;95215.13;;;5.55;79.47
79077;BME280;68477;42.698;23.342;2023-11-21T07:59:00;95220.03;;;5.68;79.37
79077;BME280;68477;42.698;23.342;2023-11-21T08:01:26;95210.81;;;5.64;78.69
79077;BME280;68477;42.698;23.342;2023-11-21T08:03:54;95211.75;;;5.73;78.31
79077;BME280;68477;42.698;23.342;2023-11-21T08:06:23;95199.66;;;5.81;78.11
79077;BME280;68477;42.698;23.342;2023-11-21T08:08:50;95198.66;;;5.92;77.17
79077;BME280;68477;42.698;23.342;2023-11-21T08:11:16;95192.94;;;5.79;78.02
79077;BME280;68477;42.698;23.342;2023-11-21T08:13:41;95193.84;;;5.88;77.85
79077;BME280;68477;42.698;23.342;2023-11-21T08:16:08;95196.06;;;6.55;76.71
79077;BME280;68477;42.698;23.342;2023-11-21T08:18:34;95209.66;;;6.59;75.05
79077;BME280;68477;42.698;23.342;2023-11-21T08:21:00;95205.03;;;6.70;75.08
79077;BME280;68477;42.698;23.342;2023-11-21T08:23:27;95205.13;;;6.61;74.95
79077;BME280;68477;42.698;23.342;2023-11-21T08:25:53;95200.41;;;6.82;74.50
79077;BME280;68477;42.698;23.342;2023-11-21T08:28:19;95208.31;;;6.72;74.20
79077;BME280;68477;42.698;23.342;2023-11-21T08:30:48;95200.03;;;6.95;73.42
79077;BME280;68477;42.698;23.342;2023-11-21T08:33:14;95205.44;;;7.01;72.23
79077;BME280;68477;42.698;23.342;2023-11-21T08:35:39;95204.78;;;6.99;71.95
79077;BME280;68477;42.698;23.342;2023-11-21T08:38:05;95199.47;;;7.09;73.13
79077;BME280;68477;42.698;23.342;2023-11-21T08:40:30;95206.22;;;7.38;71.38
79077;BME280;68477;42.698;23.342;2023-11-21T08:42:56;95201.16;;;6.75;74.53
79077;BME280;68477;42.698;23.342;2023-11-21T08:45:24;95204.97;;;7.24;74.17
79077;BME280;68477;42.698;23.342;2023-11-21T08:47:50;95200.09;;;6.67;75.64
79077;BME280;68477;42.698;23.342;2023-11-21T08:50:16;95192.00;;;7.14;73.66
79077;BME280;68477;42.698;23.342;2023-11-21T08:52:42;95197.06;;;6.72;74.65
79077;BME280;68477;42.698;23.342;2023-11-21T08:55:08;95188.16;;;6.83;73.37
79077;BME280;68477;42.698;23.342;2023-11-21T08:57:40;95189.22;;;6.72;75.52
79077;BME280;68477;42.698;23.342;2023-11-21T09:00:07;95182.69;;;7.72;70.77
79077;BME280;68477;42.698;23.342;2023-11-21T09:02:39;95170.56;;;8.05;69.68
79077;BME280;68477;42.698;23.342;2023-11-21T09:05:08;95165.16;;;8.06;68.70
79077;BME280;68477;42.698;23.342;2023-11-21T09:07:34;95167.75;;;7.64;70.23
79077;BME280;68477;42.698;23.342;2023-11-21T09:10:00;95157.56;;;7.01;72.73
79077;BME280;68477;42.698;23.342;2023-11-21T09:12:26;95145.78;;;7.23;72.67
79077;BME280;68477;42.698;23.342;2023-11-21T09:14:51;95135.63;;;7.20;72.89
79077;BME280;68477;42.698;23.342;2023-11-21T09:17:17;95132.16;;;7.45;72.34
79077;BME280;68477;42.698;23.342;2023-11-21T09:19:43;95128.28;;;7.23;72.47
79077;BME280;68477;42.698;23.342;2023-11-21T09:22:15;95117.81;;;7.23;72.56
79077;BME280;68477;42.698;23.342;2023-11-21T09:24:41;95121.78;;;7.01;73.14
79077;BME280;68477;42.698;23.342;2023-11-21T09:27:07;95110.94;;;7.14;73.72
79077;BME280;68477;42.698;23.342;2023-11-21T09:29:33;95112.97;;;7.28;72.77
79077;BME280;68477;42.698;23.342;2023-11-21T09:31:58;95095.91;;;7.24;73.86
79077;BME280;68477;42.698;23.342;2023-11-21T09:34:27;95085.66;;;7.31;74.02
79077;BME280;68477;42.698;23.342;2023-11-21T09:36:52;95072.50;;;7.49;72.48
79077;BME280;68477;42.698;23.342;2023-11-21T09:39:19;95078.66;;;7.74;71.30
79077;BME280;68477;42.698;23.342;2023-11-21T09:41:51;95077.31;;;7.62;71.21
79077;BME280;68477;42.698;23.342;2023-11-21T09:44:29;95066.34;;;8.57;68.75
79077;BME280;68477;42.698;23.342;2023-11-21T09:46:59;95065.66;;;8.23;68.67
79077;BME280;68477;42.698;23.342;2023-11-21T09:49:26;95058.75;;;8.13;69.36
79077;BME280;68477;42.698;23.342;2023-11-21T09:51:55;95052.41;;;8.57;67.69
79077;BME280;68477;42.698;23.342;2023-11-21T09:54:21;95042.22;;;8.13;68.09
79077;BME280;68477;42.698;23.342;2023-11-21T09:56:48;95035.66;;;8.01;71.30
79077;BME280;68477;42.698;23.342;2023-11-21T09:59:16;95032.47;;;8.39;69.35
79077;BME280;68477;42.698;23.342;2023-11-21T10:01:42;95020.16;;;8.64;68.15
79077;BME280;68477;42.698;23.342;2023-11-21T10:04:11;95017.47;;;8.97;67.36
79077;BME280;68477;42.698;23.342;2023-11-21T10:06:41;95022.09;;;9.26;66.44
79077;BME280;68477;42.698;23.342;2023-11-21T10:09:10;95018.69;;;9.65;64.24
79077;BME280;68477;42.698;23.342;2023-11-21T10:11:43;95026.59;;;9.09;66.51
79077;BME280;68477;42.698;23.342;2023-11-21T10:14:12;95018.81;;;9.32;66.20
79077;BME280;68477;42.698;23.342;2023-11-21T10:16:40;95009.53;;;10.06;62.84
79077;BME280;68477;42.698;23.342;2023-11-21T10:19:09;95004.88;;;10.39;61.04
79077;BME280;68477;42.698;23.342;2023-11-21T10:21:35;95004.63;;;10.34;60.64
79077;BME280;68477;42.698;23.342;2023-11-21T10:24:01;95005.44;;;10.35;60.76
79077;BME280;68477;42.698;23.342;2023-11-21T10:26:29;94995.13;;;9.79;62.63
79077;BME280;68477;42.698;23.342;2023-11-21T10:29:01;94992.63;;;9.55;64.50
79077;BME280;68477;42.698;23.342;2023-11-21T10:31:29;94985.97;;;9.44;64.86
79077;BME280;68477;42.698;23.342;2023-11-21T10:34:19;94984.25;;;9.82;64.08
79077;BME280;68477;42.698;23.342;2023-11-21T10:36:45;94979.06;;;10.20;62.41
79077;BME280;68477;42.698;23.342;2023-11-21T10:39:16;94981.69;;;9.74;64.36
79077;BME280;68477;42.698;23.342;2023-11-21T10:41:46;94975.06;;;10.09;63.23
79077;BME280;68477;42.698;23.342;2023-11-21T10:44:14;94982.56;;;10.12;62.24
79077;BME280;68477;42.698;23.342;2023-11-21T10:46:51;94974.63;;;10.20;62.85
79077;BME280;68477;42.698;23.342;2023-11-21T10:49:25;94966.69;;;9.83;62.72
79077;BME280;68477;42.698;23.342;2023-11-21T10:51:51;94972.50;;;9.70;63.83
79077;BME280;68477;42.698;23.342;2023-11-21T10:54:22;94967.63;;;9.67;63.02
79077;BME280;68477;42.698;23.342;2023-11-21T10:56:57;94963.06;;;9.84;61.97
79077;BME280;68477;42.698;23.342;2023-11-21T10:59:26;94958.16;;;9.58;62.61
79077;BME280;68477;42.698;23.342;2023-11-21T11:01:54;94956.34;;;9.58;62.42
79077;BME280;68477;42.698;23.342;2023-11-21T11:04:22;94952.59;;;9.22;63.72
79077;BME280;68477;42.698;23.342;2023-11-21T11:06:54;94950.06;;;9.37;64.24
79077;BME280;68477;42.698;23.342;2023-11-21T11:09:21;94950.59;;;9.32;64.98
79077;BME280;68477;42.698;23.342;2023-11-21T11:11:47;94950.09;;;9.28;65.45
79077;BME280;68477;42.698;23.342;2023-11-21T11:14:14;94944.25;;;9.18;65.55
79077;BME280;68477;42.698;23.342;2023-11-21T11:16:40;94939.00;;;9.18;64.98
79077;BME280;68477;42.698;23.342;2023-11-21T11:19:08;94925.03;;;8.95;65.78
79077;BME280;68477;42.698;23.342;2023-11-21T11:35:01;94907.44;;;9.34;64.19
79077;BME280;68477;42.698;23.342;2023-11-21T11:37:47;94896.56;;;9.38;63.55
79077;BME280;68477;42.698;23.342;2023-11-21T11:40:13;94906.31;;;9.29;65.11
79077;BME280;68477;42.698;23.342;2023-11-21T11:43:01;94905.44;;;9.37;65.62
79077;BME280;68477;42.698;23.342;2023-11-21T11:45:33;94902.31;;;9.10;63.97
79077;BME280;68477;42.698;23.342;2023-11-21T11:48:01;94915.69;;;9.23;65.13
79077;BME280;68477;42.698;23.342;2023-11-21T11:50:34;94925.75;;;9.43;65.32
79077;BME280;68477;42.698;23.342;2023-11-21T11:53:13;94923.63;;;9.38;67.69
79077;BME280;68477;42.698;23.342;2023-11-21T11:55:39;94924.31;;;9.40;69.96
79077;BME280;68477;42.698;23.342;2023-11-21T11:58:06;94924.25;;;9.48;70.54
79077;BME280;68477;42.698;23.342;2023-11-21T12:03:01;94911.41;;;8.91;71.19
79077;BME280;68477;42.698;23.342;2023-11-21T12:05:30;94911.56;;;8.98;70.69
79077;BME280;68477;42.698;23.342;2023-11-21T12:08:00;94913.63;;;9.11;70.66
79077;BME280;68477;42.698;23.342;2023-11-21T12:10:30;94917.31;;;9.24;71.87
79077;BME280;68477;42.698;23.342;2023-11-21T12:13:03;94920.78;;;9.17;74.04
79077;BME280;68477;42.698;23.342;2023-11-21T12:15:33;94918.16;;;9.17;74.05
79077;BME280;68477;42.698;23.342;2023-11-21T12:17:59;94912.66;;;9.03;74.93
79077;BME280;68477;42.698;23.342;2023-11-21T12:20:25;94912.78;;;8.79;78.01
79077;BME280;68477;42.698;23.342;2023-11-21T12:22:52;94920.81;;;8.78;78.94
79077;BME280;68477;42.698;23.342;2023-11-21T12:25:19;94904.91;;;8.79;78.97
79077;BME280;68477;42.698;23.342;2023-11-21T12:27:47;94899.69;;;8.71;80.92
79077;BME280;68477;42.698;23.342;2023-11-21T12:30:15;94900.66;;;8.78;82.48
79077;BME280;68477;42.698;23.342;2023-11-21T12:32:44;94904.47;;;8.59;80.93
79077;BME280;68477;42.698;23.342;2023-11-21T12:35:11;94927.28;;;8.51;82.80
79077;BME280;68477;42.698;23.342;2023-11-21T12:37:41;94917.91;;;8.56;81.90
79077;BME280;68477;42.698;23.342;2023-11-21T12:40:09;94912.84;;;8.55;81.89
79077;BME280;68477;42.698;23.342;2023-11-21T12:42:39;94911.69;;;8.49;84.40
79077;BME280;68477;42.698;23.342;2023-11-21T12:47:35;94900.75;;;8.45;79.17
79077;BME280;68477;42.698;23.342;2023-11-21T12:50:02;94885.19;;;8.52;81.54
79077;BME280;68477;42.698;23.342;2023-11-21T12:52:28;94889.09;;;8.48;81.57
79077;BME280;68477;42.698;23.342;2023-11-21T12:54:53;94887.50;;;8.39;82.68
79077;BME280;68477;42.698;23.342;2023-11-21T12:57:25;94881.91;;;8.26;83.02
79077;BME280;68477;42.698;23.342;2023-11-21T12:59:57;94873.09;;;8.43;81.86
79077;BME280;68477;42.698;23.342;2023-11-21T13:02:26;94866.72;;;8.29;84.08
79077;BME280;68477;42.698;23.342;2023-11-21T13:04:53;94862.13;;;8.39;82.74
79077;BME280;68477;42.698;23.342;2023-11-21T13:07:19;94859.66;;;8.22;82.29
79077;BME280;68477;42.698;23.342;2023-11-21T13:09:45;94869.16;;;8.31;84.16
79077;BME280;68477;42.698;23.342;2023-11-21T13:12:11;94869.84;;;8.16;85.31
79077;BME280;68477;42.698;23.342;2023-11-21T13:14:39;94863.81;;;8.08;86.74
79077;BME280;68477;42.698;23.342;2023-11-21T13:17:05;94862.78;;;8.41;85.11